createdAt,value
2024-01-05T00:00:49.100Z,999.81
2024-01-05T00:01:49.013Z,999.84
2024-01-05T00:02:49.112Z,999.80
2024-01-05T00:03:49.087Z,999.81
2024-01-05T00:04:48.975Z,999.84
2024-01-05T00:05:49.050Z,999.86
2024-01-05T00:06:49.156Z,999.86
2024-01-05T00:07:48.936Z,999.89
2024-01-05T00:08:49.040Z,999.92
2024-01-05T00:09:48.933Z,999.94
2024-01-05T00:10:48.908Z,999.92
2024-01-05T00:11:49.011Z,999.93
2024-01-05T00:12:48.857Z,999.91
2024-01-05T00:13:48.921Z,999.94
2024-01-05T00:14:48.837Z,999.95
2024-01-05T00:15:48.806Z,999.94
2024-01-05T00:16:48.886Z,999.97
2024-01-05T00:17:49.040Z,999.92
2024-01-05T00:18:49.068Z,999.90
2024-01-05T00:19:48.846Z,999.95
2024-01-05T00:20:48.858Z,999.96
2024-01-05T00:21:48.801Z,999.95
2024-01-05T00:22:48.701Z,999.96
2024-01-05T00:23:48.741Z,999.97
2024-01-05T00:24:48.768Z,999.96
2024-01-05T00:25:48.676Z,1000.02
2024-01-05T00:26:48.773Z,1000.00
2024-01-05T00:27:48.679Z,999.96
2024-01-05T00:28:48.665Z,999.95
2024-01-05T00:29:48.692Z,999.95
2024-01-05T00:30:48.710Z,999.91
2024-01-05T00:31:48.716Z,999.89
2024-01-05T00:32:48.926Z,999.82
2024-01-05T00:33:48.873Z,999.80
2024-01-05T00:34:48.737Z,999.80
2024-01-05T00:35:48.577Z,999.73
2024-01-05T00:36:48.577Z,999.80
2024-01-05T00:37:48.525Z,999.72
2024-01-05T00:38:49.006Z,999.71
2024-01-05T00:39:48.531Z,999.71
2024-01-05T00:40:48.510Z,999.74
2024-01-05T00:41:48.535Z,999.69
2024-01-05T00:42:48.497Z,999.68
2024-01-05T00:43:48.501Z,999.65
2024-01-05T00:44:48.540Z,999.70
2024-01-05T00:45:48.445Z,999.68
2024-01-05T00:46:48.459Z,999.68
2024-01-05T00:47:48.465Z,999.69
2024-01-05T00:48:48.561Z,999.66
2024-01-05T00:49:48.545Z,999.63
2024-01-05T00:50:48.376Z,999.60
2024-01-05T00:51:48.367Z,999.58
2024-01-05T00:52:48.339Z,999.54
2024-01-05T00:53:48.333Z,999.55
2024-01-05T00:54:48.298Z,999.58
2024-01-05T00:55:48.323Z,999.55
2024-01-05T00:56:48.326Z,999.55
2024-01-05T00:57:48.358Z,999.52
2024-01-05T00:58:48.301Z,999.52
2024-01-05T00:59:48.232Z,999.54
2024-01-05T01:00:48.331Z,999.50
2024-01-05T01:01:48.238Z,999.51
2024-01-05T01:02:48.254Z,999.55
2024-01-05T01:03:48.345Z,999.49
2024-01-05T01:04:48.284Z,999.51
2024-01-05T01:05:48.174Z,999.52
2024-01-05T01:06:48.312Z,999.55
2024-01-05T01:07:48.192Z,999.55
2024-01-05T01:08:48.191Z,999.52
2024-01-05T01:09:48.114Z,999.53
2024-01-05T01:10:48.131Z,999.50
2024-01-05T01:11:48.117Z,999.49
2024-01-05T01:12:48.116Z,999.47
2024-01-05T01:13:48.111Z,999.44
2024-01-05T01:14:48.105Z,999.43
2024-01-05T01:15:48.032Z,999.43
2024-01-05T01:16:48.055Z,999.39
2024-01-05T01:17:48.263Z,999.39
2024-01-05T01:18:48.092Z,999.30
2024-01-05T01:19:48.032Z,999.33
2024-01-05T01:20:48.000Z,999.33
2024-01-05T01:21:48.012Z,999.31
2024-01-05T01:22:48.000Z,999.37
2024-01-05T01:23:47.941Z,999.33
2024-01-05T01:24:47.977Z,999.30
2024-01-05T01:25:47.925Z,999.36
2024-01-05T01:26:47.937Z,999.35
2024-01-05T01:27:47.919Z,999.38
2024-01-05T01:28:47.929Z,999.32
2024-01-05T01:29:47.879Z,999.32
2024-01-05T01:30:47.964Z,999.35
2024-01-05T01:31:47.894Z,999.31
2024-01-05T01:32:47.846Z,999.31
2024-01-05T01:33:47.940Z,999.30
2024-01-05T01:34:47.817Z,999.25
2024-01-05T01:35:47.812Z,999.24
2024-01-05T01:36:47.785Z,999.25
2024-01-05T01:37:47.826Z,999.29
2024-01-05T01:38:47.757Z,999.27
2024-01-05T01:39:47.731Z,999.26
2024-01-05T01:40:47.753Z,999.24
2024-01-05T01:41:47.723Z,999.24
2024-01-05T01:42:47.783Z,999.27
2024-01-05T01:43:51.183Z,999.27
2024-01-05T01:44:48.693Z,999.27
2024-01-05T01:45:47.698Z,999.28
2024-01-05T01:46:47.720Z,999.29
2024-01-05T01:47:47.802Z,999.29
2024-01-05T01:48:47.842Z,999.24
2024-01-05T01:49:47.854Z,999.21
2024-01-05T01:50:47.594Z,999.16
2024-01-05T01:51:47.658Z,999.15
2024-01-05T01:52:47.571Z,999.07
2024-01-05T01:53:47.587Z,999.03
2024-01-05T01:54:47.612Z,999.08
2024-01-05T01:55:47.552Z,999.05
2024-01-05T01:56:47.546Z,999.07
2024-01-05T01:57:47.577Z,999.05
2024-01-05T01:58:47.519Z,999.04
2024-01-05T01:59:47.585Z,999.03
2024-01-05T02:00:47.607Z,999.05
2024-01-05T02:01:47.457Z,999.00
2024-01-05T02:02:47.494Z,998.99
2024-01-05T02:03:47.515Z,999.01
2024-01-05T02:04:47.453Z,999.00
2024-01-05T02:05:47.432Z,998.92
2024-01-05T02:06:47.416Z,998.96
2024-01-05T02:07:47.416Z,998.95
2024-01-05T02:08:47.436Z,998.93
2024-01-05T02:09:47.368Z,998.94
2024-01-05T02:10:47.360Z,998.91
2024-01-05T02:11:47.354Z,998.91
2024-01-05T02:12:47.412Z,998.92
2024-01-05T02:13:47.328Z,998.93
2024-01-05T02:14:47.327Z,998.93
2024-01-05T02:15:47.284Z,998.93
2024-01-05T02:16:47.265Z,998.93
2024-01-05T02:17:47.497Z,998.89
2024-01-05T02:18:47.335Z,998.90
2024-01-05T02:19:47.344Z,998.89
2024-01-05T02:20:47.225Z,998.91
2024-01-05T02:21:47.258Z,998.87
2024-01-05T02:22:47.200Z,998.85
2024-01-05T02:23:47.168Z,998.81
2024-01-05T02:24:47.185Z,998.86
2024-01-05T02:25:47.152Z,998.85
2024-01-05T02:26:47.833Z,998.83
2024-01-05T02:27:47.231Z,998.83
2024-01-05T02:28:47.112Z,998.80
2024-01-05T02:29:47.252Z,998.81
2024-01-05T02:30:47.143Z,998.75
2024-01-05T02:31:47.131Z,998.71
2024-01-05T02:32:47.151Z,998.73
2024-01-05T02:33:47.205Z,998.65
2024-01-05T02:34:47.073Z,998.69
2024-01-05T02:35:47.012Z,998.67
2024-01-05T02:36:47.339Z,998.62
2024-01-05T02:37:47.013Z,998.66
2024-01-05T02:38:46.967Z,998.61
2024-01-05T02:39:46.966Z,998.62
2024-01-05T02:40:46.964Z,998.54
2024-01-05T02:41:47.012Z,998.57
2024-01-05T02:42:46.925Z,998.49
2024-01-05T02:43:47.023Z,998.46
2024-01-05T02:44:46.893Z,998.49
2024-01-05T02:45:46.893Z,998.46
2024-01-05T02:46:46.901Z,998.45
2024-01-05T02:47:46.990Z,998.46
2024-01-05T02:48:47.069Z,998.42
2024-01-05T02:49:46.960Z,998.43
2024-01-05T02:50:46.865Z,998.42
2024-01-05T02:51:46.898Z,998.38
2024-01-05T02:52:46.861Z,998.36
2024-01-05T02:53:46.813Z,998.35
2024-01-05T02:54:46.769Z,998.32
2024-01-05T02:55:46.789Z,998.34
2024-01-05T02:56:46.831Z,998.34
2024-01-05T02:57:46.793Z,998.32
2024-01-05T02:58:46.761Z,998.29
2024-01-05T02:59:46.761Z,998.30
2024-01-05T03:00:46.794Z,998.23
2024-01-05T03:01:46.698Z,998.20
2024-01-05T03:02:46.687Z,998.19
2024-01-05T03:03:50.521Z,998.14
2024-01-05T03:04:46.749Z,998.12
2024-01-05T03:05:46.688Z,998.09
2024-01-05T03:06:47.252Z,998.10
2024-01-05T03:07:46.655Z,998.06
2024-01-05T03:08:46.613Z,998.02
2024-01-05T03:09:46.580Z,997.99
2024-01-05T03:10:46.567Z,998.00
2024-01-05T03:11:46.561Z,997.99
2024-01-05T03:12:46.585Z,997.99
2024-01-05T03:13:46.632Z,997.95
2024-01-05T03:14:46.510Z,997.94
2024-01-05T03:15:46.624Z,997.96
2024-01-05T03:16:46.716Z,997.88
2024-01-05T03:17:46.579Z,997.88
2024-01-05T03:18:46.652Z,997.86
2024-01-05T03:19:46.471Z,997.83
2024-01-05T03:20:46.498Z,997.82
2024-01-05T03:21:46.485Z,997.88
2024-01-05T03:22:46.429Z,997.80
2024-01-05T03:23:46.420Z,997.81
2024-01-05T03:24:46.464Z,997.81
2024-01-05T03:25:46.458Z,997.79
2024-01-05T03:26:46.396Z,997.81
2024-01-05T03:27:46.411Z,997.82
2024-01-05T03:28:46.370Z,997.73
2024-01-05T03:29:46.352Z,997.71
2024-01-05T03:30:46.367Z,997.73
2024-01-05T03:31:46.325Z,997.69
2024-01-05T03:32:46.355Z,997.67
2024-01-05T03:33:46.412Z,997.61
2024-01-05T03:34:46.291Z,997.61
2024-01-05T03:35:46.263Z,997.60
2024-01-05T03:36:46.660Z,997.63
2024-01-05T03:37:46.217Z,997.59
2024-01-05T03:38:46.269Z,997.57
2024-01-05T03:39:46.256Z,997.60
2024-01-05T03:40:46.219Z,997.54
2024-01-05T03:41:46.193Z,997.55
2024-01-05T03:42:46.232Z,997.49
2024-01-05T03:43:46.185Z,997.51
2024-01-05T03:44:46.133Z,997.51
2024-01-05T03:45:46.424Z,997.46
2024-01-05T03:46:46.185Z,997.40
2024-01-05T03:47:46.125Z,997.49
2024-01-05T03:48:46.302Z,997.45
2024-01-05T03:49:46.121Z,997.48
2024-01-05T03:50:46.090Z,997.50
2024-01-05T03:51:46.118Z,997.52
2024-01-05T03:52:46.062Z,997.49
2024-01-05T03:53:46.082Z,997.50
2024-01-05T03:54:46.055Z,997.49
2024-01-05T03:55:46.044Z,997.47
2024-01-05T03:56:46.171Z,997.52
2024-01-05T03:57:46.040Z,997.48
2024-01-05T03:58:45.968Z,997.46
2024-01-05T03:59:45.972Z,997.51
2024-01-05T04:00:46.006Z,997.51
2024-01-05T04:01:45.960Z,997.50
2024-01-05T04:02:45.994Z,997.52
2024-01-05T04:03:46.143Z,997.54
2024-01-05T04:04:45.968Z,997.50
2024-01-05T04:05:46.000Z,997.51
2024-01-05T04:06:46.571Z,997.48
2024-01-05T04:07:45.888Z,997.52
2024-01-05T04:08:45.901Z,997.44
2024-01-05T04:09:45.823Z,997.45
2024-01-05T04:10:45.845Z,997.41
2024-01-05T04:11:45.808Z,997.37
2024-01-05T04:12:45.791Z,997.39
2024-01-05T04:13:45.847Z,997.38
2024-01-05T04:14:45.797Z,997.35
2024-01-05T04:15:45.809Z,997.28
2024-01-05T04:16:46.093Z,997.32
2024-01-05T04:17:45.755Z,997.38
2024-01-05T04:18:45.838Z,997.27
2024-01-05T04:19:45.889Z,997.32
2024-01-05T04:20:45.782Z,997.33
2024-01-05T04:21:45.686Z,997.24
2024-01-05T04:22:45.668Z,997.24
2024-01-05T04:23:45.647Z,997.22
2024-01-05T04:24:45.641Z,997.21
2024-01-05T04:25:45.673Z,997.24
2024-01-05T04:26:45.880Z,997.18
2024-01-05T04:27:45.611Z,997.14
2024-01-05T04:28:45.618Z,997.13
2024-01-05T04:29:45.612Z,997.11
2024-01-05T04:30:45.616Z,997.14
2024-01-05T04:31:45.575Z,997.10
2024-01-05T04:32:45.731Z,997.13
2024-01-05T04:33:45.707Z,997.12
2024-01-05T04:34:45.568Z,997.07
2024-01-05T04:35:45.515Z,997.09
2024-01-05T04:36:45.769Z,997.09
2024-01-05T04:37:45.464Z,997.08
2024-01-05T04:38:45.481Z,997.07
2024-01-05T04:39:45.418Z,997.10
2024-01-05T04:40:45.446Z,997.05
2024-01-05T04:41:45.445Z,997.03
2024-01-05T04:42:45.450Z,997.00
2024-01-05T04:43:45.435Z,997.04
2024-01-05T04:44:45.394Z,997.02
2024-01-05T04:45:45.437Z,997.00
2024-01-05T04:46:45.879Z,996.95
2024-01-05T04:47:45.437Z,997.02
2024-01-05T04:48:45.389Z,996.97
2024-01-05T04:49:45.354Z,997.01
2024-01-05T04:50:45.312Z,997.00
2024-01-05T04:51:45.369Z,996.91
2024-01-05T04:52:45.299Z,996.91
2024-01-05T04:53:45.332Z,996.92
2024-01-05T04:54:45.319Z,996.91
2024-01-05T04:55:45.240Z,996.88
2024-01-05T04:56:45.262Z,996.88
2024-01-05T04:57:46.643Z,996.96
2024-01-05T04:58:45.248Z,996.97
2024-01-05T04:59:45.166Z,996.97
2024-01-05T05:00:45.264Z,996.95
2024-01-05T05:01:45.402Z,996.97
2024-01-05T05:02:45.209Z,996.95
2024-01-05T05:03:45.222Z,996.92
2024-01-05T05:04:46.071Z,996.86
2024-01-05T05:05:45.184Z,996.85
2024-01-05T05:06:45.128Z,996.79
2024-01-05T05:07:45.066Z,996.80
2024-01-05T05:08:45.103Z,996.80
2024-01-05T05:09:45.081Z,996.81
2024-01-05T05:10:45.065Z,996.83
2024-01-05T05:11:45.273Z,996.78
2024-01-05T05:12:45.040Z,996.78
2024-01-05T05:13:45.058Z,996.71
2024-01-05T05:14:45.050Z,996.71
2024-01-05T05:15:45.021Z,996.72
2024-01-05T05:16:44.967Z,996.69
2024-01-05T05:17:45.044Z,996.68
2024-01-05T05:18:45.106Z,996.59
2024-01-05T05:19:45.050Z,996.64
2024-01-05T05:20:44.934Z,996.60
2024-01-05T05:21:45.429Z,996.59
2024-01-05T05:22:44.916Z,996.55
2024-01-05T05:23:44.868Z,996.52
2024-01-05T05:24:44.885Z,996.54
2024-01-05T05:25:44.870Z,996.51
2024-01-05T05:26:44.851Z,996.45
2024-01-05T05:27:44.814Z,996.52
2024-01-05T05:28:44.834Z,996.54
2024-01-05T05:29:44.811Z,996.58
2024-01-05T05:30:44.907Z,996.60
2024-01-05T05:31:45.154Z,996.62
2024-01-05T05:32:44.806Z,996.60
2024-01-05T05:33:44.958Z,996.59
2024-01-05T05:34:44.988Z,996.51
2024-01-05T05:35:44.746Z,996.57
2024-01-05T05:36:44.776Z,996.51
2024-01-05T05:37:44.704Z,996.49
2024-01-05T05:38:44.702Z,996.56
2024-01-05T05:39:44.692Z,996.55
2024-01-05T05:40:44.676Z,996.57
2024-01-05T05:41:44.847Z,996.59
2024-01-05T05:42:44.693Z,996.57
2024-01-05T05:43:44.636Z,996.56
2024-01-05T05:44:44.602Z,996.60
2024-01-05T05:45:44.648Z,996.56
2024-01-05T05:46:44.594Z,996.58
2024-01-05T05:47:44.672Z,996.57
2024-01-05T05:48:44.821Z,996.56
2024-01-05T05:49:44.624Z,996.54
2024-01-05T05:50:44.538Z,996.50
2024-01-05T05:51:44.755Z,996.52
2024-01-05T05:52:44.536Z,996.53
2024-01-05T05:53:44.575Z,996.54
2024-01-05T05:54:44.537Z,996.59
2024-01-05T05:55:44.508Z,996.62
2024-01-05T05:56:44.482Z,996.61
2024-01-05T05:57:44.460Z,996.61
2024-01-05T05:58:44.496Z,996.60
2024-01-05T05:59:44.417Z,996.62
2024-01-05T06:00:44.578Z,996.62
2024-01-05T06:01:44.662Z,996.61
2024-01-05T06:02:44.392Z,996.57
2024-01-05T06:03:44.468Z,996.60
2024-01-05T06:04:44.468Z,996.58
2024-01-05T06:05:44.436Z,996.52
2024-01-05T06:06:44.430Z,996.55
2024-01-05T06:07:44.421Z,996.57
2024-01-05T06:08:44.288Z,996.54
2024-01-05T06:09:44.396Z,996.52
2024-01-05T06:10:44.307Z,996.57
2024-01-05T06:11:44.428Z,996.57
2024-01-05T06:12:44.309Z,996.55
2024-01-05T06:13:44.306Z,996.60
2024-01-05T06:14:44.238Z,996.60
2024-01-05T06:15:44.290Z,996.59
2024-01-05T06:16:44.221Z,996.60
2024-01-05T06:17:45.310Z,996.59
2024-01-05T06:18:44.298Z,996.56
2024-01-05T06:19:44.324Z,996.55
2024-01-05T06:20:44.172Z,996.54
2024-01-05T06:21:44.435Z,996.53
2024-01-05T06:22:44.316Z,996.53
2024-01-05T06:23:44.136Z,996.58
2024-01-05T06:24:44.217Z,996.53
2024-01-05T06:25:44.092Z,996.56
2024-01-05T06:26:44.131Z,996.54
2024-01-05T06:27:44.118Z,996.56
2024-01-05T06:28:44.046Z,996.60
2024-01-05T06:29:44.089Z,996.60
2024-01-05T06:30:44.118Z,996.63
2024-01-05T06:31:44.269Z,996.63
2024-01-05T06:32:44.064Z,996.67
2024-01-05T06:33:44.261Z,996.67
2024-01-05T06:34:44.037Z,996.64
2024-01-05T06:35:43.968Z,996.68
2024-01-05T06:36:44.039Z,996.72
2024-01-05T06:37:44.025Z,996.70
2024-01-05T06:38:43.916Z,996.72
2024-01-05T06:39:44.110Z,996.75
2024-01-05T06:40:45.491Z,996.81
2024-01-05T06:41:44.361Z,996.79
2024-01-05T06:42:43.966Z,996.77
2024-01-05T06:43:43.875Z,996.75
2024-01-05T06:44:43.863Z,996.79
2024-01-05T06:45:43.843Z,996.76
2024-01-05T06:46:43.853Z,996.73
2024-01-05T06:47:43.813Z,996.76
2024-01-05T06:48:43.995Z,996.68
2024-01-05T06:49:44.037Z,996.71
2024-01-05T06:50:44.174Z,996.72
2024-01-05T06:51:43.996Z,996.73
2024-01-05T06:52:43.722Z,996.74
2024-01-05T06:53:43.730Z,996.75
2024-01-05T06:54:43.772Z,996.73
2024-01-05T06:55:43.681Z,996.71
2024-01-05T06:56:43.723Z,996.70
2024-01-05T06:57:43.694Z,996.70
2024-01-05T06:58:43.693Z,996.71
2024-01-05T06:59:43.698Z,996.69
2024-01-05T07:00:43.699Z,996.60
2024-01-05T07:01:45.017Z,996.63
2024-01-05T07:02:43.638Z,996.58
2024-01-05T07:03:44.497Z,996.58
2024-01-05T07:04:43.708Z,996.58
2024-01-05T07:05:44.128Z,996.52
2024-01-05T07:06:43.585Z,996.51
2024-01-05T07:07:43.592Z,996.51
2024-01-05T07:08:43.592Z,996.53
2024-01-05T07:09:43.536Z,996.56
2024-01-05T07:10:44.286Z,996.54
2024-01-05T07:11:43.986Z,996.47
2024-01-05T07:12:43.508Z,996.46
2024-01-05T07:13:43.484Z,996.41
2024-01-05T07:14:43.439Z,996.35
2024-01-05T07:15:43.497Z,996.28
2024-01-05T07:16:43.710Z,996.24
2024-01-05T07:17:43.522Z,996.16
2024-01-05T07:18:43.520Z,996.18
2024-01-05T07:19:43.448Z,996.21
2024-01-05T07:20:43.431Z,996.22
2024-01-05T07:21:43.529Z,996.25
2024-01-05T07:22:43.353Z,996.34
2024-01-05T07:23:43.364Z,996.29
2024-01-05T07:24:43.345Z,996.33
2024-01-05T07:25:43.289Z,996.39
2024-01-05T07:26:43.338Z,996.45
2024-01-05T07:27:43.353Z,996.46
2024-01-05T07:28:43.302Z,996.42
2024-01-05T07:29:43.300Z,996.32
2024-01-05T07:30:43.377Z,996.34
2024-01-05T07:31:43.573Z,996.27
2024-01-05T07:32:43.310Z,996.22
2024-01-05T07:33:43.358Z,996.15
2024-01-05T07:34:43.268Z,996.15
2024-01-05T07:35:43.204Z,996.12
2024-01-05T07:36:43.183Z,996.19
2024-01-05T07:37:43.226Z,996.10
2024-01-05T07:38:43.215Z,996.12
2024-01-05T07:39:43.229Z,996.18
2024-01-05T07:40:43.126Z,996.17
2024-01-05T07:41:43.377Z,996.16
2024-01-05T07:42:43.249Z,996.10
2024-01-05T07:43:43.085Z,996.08
2024-01-05T07:44:43.097Z,996.13
2024-01-05T07:45:43.126Z,996.09
2024-01-05T07:46:43.079Z,996.07
2024-01-05T07:47:43.583Z,996.02
2024-01-05T07:48:43.898Z,996.03
2024-01-05T07:49:44.262Z,995.98
2024-01-05T07:50:43.019Z,996.01
2024-01-05T07:51:43.128Z,996.02
2024-01-05T07:52:43.009Z,996.03
2024-01-05T07:53:42.995Z,996.00
2024-01-05T07:54:43.090Z,996.07
2024-01-05T07:55:42.958Z,996.03
2024-01-05T07:56:43.721Z,995.99
2024-01-05T07:57:44.803Z,995.97
2024-01-05T07:58:42.928Z,995.93
2024-01-05T07:59:42.981Z,995.93
2024-01-05T08:00:43.170Z,995.95
2024-01-05T08:01:43.377Z,995.93
2024-01-05T08:02:42.902Z,995.92
2024-01-05T08:03:43.131Z,995.91
2024-01-05T08:04:42.839Z,995.89
2024-01-05T08:05:46.177Z,995.85
2024-01-05T08:06:43.129Z,995.89
2024-01-05T08:07:42.768Z,995.87
2024-01-05T08:08:42.920Z,995.86
2024-01-05T08:09:42.796Z,995.83
2024-01-05T08:10:42.757Z,995.89
2024-01-05T08:11:42.929Z,995.88
2024-01-05T08:12:43.308Z,995.88
2024-01-05T08:13:42.762Z,995.87
2024-01-05T08:14:42.770Z,995.88
2024-01-05T08:15:42.838Z,995.89
2024-01-05T08:16:42.698Z,995.94
2024-01-05T08:17:42.708Z,995.90
2024-01-05T08:18:42.707Z,995.94
2024-01-05T08:19:43.221Z,995.94
2024-01-05T08:20:43.327Z,995.93
2024-01-05T08:21:43.215Z,995.90
2024-01-05T08:22:42.612Z,995.93
2024-01-05T08:23:43.409Z,995.92
2024-01-05T08:24:42.814Z,995.86
2024-01-05T08:25:43.726Z,995.91
2024-01-05T08:26:42.561Z,995.90
2024-01-05T08:27:42.617Z,995.89
2024-01-05T08:28:42.536Z,995.93
2024-01-05T08:29:43.078Z,995.86
2024-01-05T08:30:42.575Z,995.84
2024-01-05T08:31:43.145Z,995.88
2024-01-05T08:32:42.512Z,995.89
2024-01-05T08:33:42.581Z,995.89
2024-01-05T08:34:42.479Z,995.86
2024-01-05T08:35:42.995Z,995.86
2024-01-05T08:36:43.011Z,995.79
2024-01-05T08:37:42.395Z,995.81
2024-01-05T08:38:42.397Z,995.78
2024-01-05T08:39:42.389Z,995.81
2024-01-05T08:40:42.390Z,995.84
2024-01-05T08:41:42.633Z,995.84
2024-01-05T08:42:42.542Z,995.85
2024-01-05T08:43:42.389Z,995.83
2024-01-05T08:44:42.294Z,995.86
2024-01-05T08:45:42.491Z,995.90
2024-01-05T08:46:42.523Z,995.87
2024-01-05T08:47:42.376Z,995.88
2024-01-05T08:48:42.300Z,995.91
2024-01-05T08:49:42.313Z,995.90
2024-01-05T08:50:42.225Z,995.90
2024-01-05T08:51:42.292Z,995.89
2024-01-05T08:52:42.261Z,995.87
2024-01-05T08:53:42.201Z,995.88
2024-01-05T08:54:42.266Z,995.86
2024-01-05T08:55:42.170Z,995.90
2024-01-05T08:56:42.180Z,995.85
2024-01-05T08:57:42.275Z,995.78
2024-01-05T08:58:42.171Z,995.79
2024-01-05T08:59:42.156Z,995.87
2024-01-05T09:00:42.326Z,995.89
2024-01-05T09:01:42.402Z,995.93
2024-01-05T09:02:42.409Z,995.91
2024-01-05T09:03:42.169Z,995.94
2024-01-05T09:04:42.129Z,995.92
2024-01-05T09:05:42.246Z,995.92
2024-01-05T09:06:42.084Z,995.94
2024-01-05T09:07:42.077Z,995.92
2024-01-05T09:08:41.976Z,995.98
2024-01-05T09:09:42.802Z,995.96
2024-01-05T09:10:41.990Z,995.95
2024-01-05T09:11:42.006Z,995.98
2024-01-05T09:12:42.010Z,995.98
2024-01-05T09:13:42.002Z,996.02
2024-01-05T09:14:41.979Z,995.93
2024-01-05T09:15:42.042Z,995.94
2024-01-05T09:16:42.404Z,996.03
2024-01-05T09:17:42.008Z,996.00
2024-01-05T09:18:42.017Z,996.06
2024-01-05T09:19:41.986Z,996.05
2024-01-05T09:20:41.844Z,996.09
2024-01-05T09:21:41.944Z,996.09
2024-01-05T09:22:41.916Z,996.12
2024-01-05T09:23:41.855Z,996.13
2024-01-05T09:24:42.693Z,996.09
2024-01-05T09:25:44.146Z,996.17
2024-01-05T09:26:41.768Z,996.20
2024-01-05T09:27:41.863Z,996.14
2024-01-05T09:28:41.779Z,996.14
2024-01-05T09:29:41.728Z,996.19
2024-01-05T09:30:41.808Z,996.19
2024-01-05T09:31:41.773Z,996.18
2024-01-05T09:32:42.103Z,996.18
2024-01-05T09:33:41.866Z,996.14
2024-01-05T09:34:41.846Z,996.10
2024-01-05T09:35:41.682Z,996.03
2024-01-05T09:36:41.643Z,996.09
2024-01-05T09:37:41.839Z,996.13
2024-01-05T09:38:41.609Z,996.13
2024-01-05T09:39:42.857Z,996.12
2024-01-05T09:40:41.617Z,996.15
2024-01-05T09:41:41.564Z,996.19
2024-01-05T09:42:41.740Z,996.20
2024-01-05T09:43:42.087Z,996.25
2024-01-05T09:44:41.555Z,996.23
2024-01-05T09:45:41.539Z,996.24
2024-01-05T09:46:41.572Z,996.28
2024-01-05T09:47:41.622Z,996.26
2024-01-05T09:49:41.640Z,996.27
2024-01-05T09:50:41.669Z,996.22
2024-01-05T09:51:41.604Z,996.23
2024-01-05T09:52:41.614Z,996.17
2024-01-05T09:53:41.464Z,996.15
2024-01-05T09:54:42.434Z,996.09
2024-01-05T09:55:41.403Z,996.15
2024-01-05T09:56:41.446Z,996.11
2024-01-05T09:57:41.526Z,996.10
2024-01-05T09:58:41.373Z,996.16
2024-01-05T09:59:41.388Z,996.09
2024-01-05T10:00:41.607Z,996.15
2024-01-05T10:01:41.423Z,996.16
2024-01-05T10:02:41.352Z,996.14
2024-01-05T10:03:41.425Z,996.10
2024-01-05T10:04:41.351Z,996.12
2024-01-05T10:05:41.387Z,996.09
2024-01-05T10:06:41.433Z,996.12
2024-01-05T10:07:41.291Z,996.09
2024-01-05T10:08:41.298Z,996.08
2024-01-05T10:09:41.309Z,996.07
2024-01-05T10:10:41.225Z,996.01
2024-01-05T10:11:41.261Z,996.00
2024-01-05T10:12:41.281Z,996.03
2024-01-05T10:13:41.198Z,996.05
2024-01-05T10:14:41.179Z,996.00
2024-01-05T10:15:41.243Z,995.98
2024-01-05T10:16:41.445Z,996.00
2024-01-05T10:17:41.135Z,995.93
2024-01-05T10:18:41.222Z,995.94
2024-01-05T10:19:41.264Z,995.98
2024-01-05T10:20:41.102Z,995.91
2024-01-05T10:21:41.150Z,995.92
2024-01-05T10:22:41.066Z,995.95
2024-01-05T10:23:41.010Z,995.97
2024-01-05T10:24:41.108Z,995.97
2024-01-05T10:25:41.049Z,995.92
2024-01-05T10:26:41.074Z,995.91
2024-01-05T10:27:41.091Z,995.92
2024-01-05T10:28:40.989Z,995.88
2024-01-05T10:29:40.982Z,995.87
2024-01-05T10:30:41.100Z,995.84
2024-01-05T10:31:40.974Z,995.93
2024-01-05T10:32:41.154Z,995.91
2024-01-05T10:33:41.033Z,995.93
2024-01-05T10:34:41.036Z,995.92
2024-01-05T10:35:40.930Z,995.92
2024-01-05T10:36:40.909Z,995.92
2024-01-05T10:37:40.883Z,995.88
2024-01-05T10:38:40.835Z,995.93
2024-01-05T10:39:40.866Z,995.86
2024-01-05T10:40:40.832Z,995.93
2024-01-05T10:41:40.794Z,995.94
2024-01-05T10:42:41.002Z,995.97
2024-01-05T10:43:41.036Z,995.91
2024-01-05T10:44:40.797Z,995.95
2024-01-05T10:45:41.279Z,995.90
2024-01-05T10:46:40.776Z,995.91
2024-01-05T10:47:40.930Z,995.89
2024-01-05T10:48:40.858Z,995.94
2024-01-05T10:49:40.804Z,995.87
2024-01-05T10:50:40.800Z,995.89
2024-01-05T10:51:40.803Z,995.86
2024-01-05T10:52:40.822Z,995.80
2024-01-05T10:53:41.832Z,995.75
2024-01-05T10:54:40.743Z,995.67
2024-01-05T10:55:40.900Z,995.69
2024-01-05T10:56:40.582Z,995.68
2024-01-05T10:57:40.729Z,995.68
2024-01-05T10:58:40.585Z,995.62
2024-01-05T10:59:40.564Z,995.64
2024-01-05T11:00:40.793Z,995.62
2024-01-05T11:01:40.716Z,995.59
2024-01-05T11:02:40.646Z,995.52
2024-01-05T11:03:40.625Z,995.55
2024-01-05T11:04:40.567Z,995.53
2024-01-05T11:05:40.513Z,995.45
2024-01-05T11:06:40.536Z,995.54
2024-01-05T11:07:40.573Z,995.50
2024-01-05T11:08:40.488Z,995.55
2024-01-05T11:09:40.525Z,995.55
2024-01-05T11:10:41.194Z,995.54
2024-01-05T11:11:40.465Z,995.55
2024-01-05T11:12:40.549Z,995.50
2024-01-05T11:13:40.633Z,995.54
2024-01-05T11:14:40.405Z,995.57
2024-01-05T11:15:40.549Z,995.54
2024-01-05T11:16:41.129Z,995.53
2024-01-05T11:17:40.535Z,995.49
2024-01-05T11:18:40.564Z,995.46
2024-01-05T11:19:40.454Z,995.46
2024-01-05T11:20:40.325Z,995.43
2024-01-05T11:21:41.199Z,995.43
2024-01-05T11:22:41.076Z,995.42
2024-01-05T11:23:40.342Z,995.41
2024-01-05T11:24:40.324Z,995.47
2024-01-05T11:25:40.263Z,995.39
2024-01-05T11:26:41.212Z,995.37
2024-01-05T11:27:40.428Z,995.32
2024-01-05T11:28:40.294Z,995.30
2024-01-05T11:29:40.311Z,995.25
2024-01-05T11:30:40.320Z,995.25
2024-01-05T11:31:40.437Z,995.23
2024-01-05T11:32:40.368Z,995.26
2024-01-05T11:33:40.319Z,995.21
2024-01-05T11:34:41.031Z,995.26
2024-01-05T11:35:40.264Z,995.24
2024-01-05T11:36:40.177Z,995.15
2024-01-05T11:37:40.087Z,995.20
2024-01-05T11:38:40.089Z,995.19
2024-01-05T11:39:40.315Z,995.21
2024-01-05T11:40:40.081Z,995.22
2024-01-05T11:41:41.072Z,995.30
2024-01-05T11:42:40.060Z,995.29
2024-01-05T11:43:40.052Z,995.23
2024-01-05T11:44:40.282Z,995.21
2024-01-05T11:45:40.355Z,995.17
2024-01-05T11:46:40.173Z,995.10
2024-01-05T11:47:40.410Z,995.07
2024-01-05T11:48:41.324Z,995.05
2024-01-05T11:49:40.231Z,995.09
2024-01-05T11:50:39.963Z,995.08
2024-01-05T11:51:41.449Z,995.06
2024-01-05T11:52:39.930Z,995.04
2024-01-05T11:53:39.902Z,994.98
2024-01-05T11:54:41.114Z,994.99
2024-01-05T11:55:39.880Z,994.98
2024-01-05T11:56:39.896Z,995.01
2024-01-05T11:57:40.833Z,994.96
2024-01-05T11:58:40.132Z,994.96
2024-01-05T11:59:40.178Z,994.99
2024-01-05T12:00:39.929Z,995.06
2024-01-05T12:01:39.894Z,995.04
2024-01-05T12:02:39.766Z,995.09
2024-01-05T12:03:40.014Z,995.03
2024-01-05T12:04:39.771Z,995.05
2024-01-05T12:05:39.968Z,995.07
2024-01-05T12:06:39.789Z,995.01
2024-01-05T12:07:39.858Z,994.98
2024-01-05T12:08:39.737Z,994.97
2024-01-05T12:09:39.749Z,994.96
2024-01-05T12:10:39.750Z,994.96
2024-01-05T12:11:39.683Z,994.97
2024-01-05T12:12:39.816Z,994.92
2024-01-05T12:13:39.653Z,994.95
2024-01-05T12:14:39.610Z,994.92
2024-01-05T12:15:49.944Z,994.83
2024-01-05T12:16:40.615Z,994.90
2024-01-05T12:17:42.517Z,994.87
2024-01-05T12:18:39.888Z,994.89
2024-01-05T12:19:41.292Z,994.88
2024-01-05T12:20:39.700Z,994.88
2024-01-05T12:21:39.558Z,994.87
2024-01-05T12:22:39.628Z,994.85
2024-01-05T12:23:41.314Z,994.88
2024-01-05T12:24:39.885Z,994.83
2024-01-05T12:25:39.514Z,994.80
2024-01-05T12:26:39.542Z,994.76
2024-01-05T12:27:39.596Z,994.76
2024-01-05T12:28:39.563Z,994.71
2024-01-05T12:29:39.527Z,994.67